X  Fechar Metar - Info de Aeroporto     YMML Melbourne International Airport
Temperatura
12°C Temperatura
9°C Ptº Orvalho
82% Humidade



Vento
24 KM/H
15 MPH
7 M/S
13 NÓS



350°
N
Condições Atuais

Nuvens principalmente dispersas Nuvens principalmente dispersas
Pressão 1018.96 (hPa) - 30.09 (inHg)
Visibilidade 6 (milha) - 9.7 (km)
Aeroporto
Código-Aeropoto YMML

Localização: Melbourne International Airport
Distância: 18 (km)

Metar:
YMML 211830Z 35013KT CAVOK 12/09 Q1019 SCT068 BKN100

Hora: 22-07-2024 04:30 AEST